X  SluitMETAR luchtvaart weer gegevens      EHRD Rotterdam

Temperatuur

17°C Temperatuur

13°C Dauwpunt

77% Vochtigheid



Wind

19 KM/U

12 MPH

 5 M/S

10 KTS



20°
Noord Noord
Oost
Huidig weer

Helder Helder
Luchtdruk 1027.92 (hPa) - 30.35 (in)
Zicht 6.2 (mi) - 10 (km)
Vliegveld
Vliegveld code EHRD

Locatie Rotterdam 14 (km)

Metar:
EHRD 262025Z AUTO 02010KT 320V070 9999 NCD 17/13 Q1028 NOSIG

Tijd: 26-06-2019 22:25